createdAt,value
2023-03-06T00:00:32.483Z,40.90
2023-03-06T00:02:59.313Z,41.80
2023-03-06T00:05:27.063Z,42.40
2023-03-06T00:07:53.833Z,42.33
2023-03-06T00:10:23.790Z,43.84
2023-03-06T00:12:56.558Z,44.30
2023-03-06T00:15:24.830Z,43.81
2023-03-06T00:17:52.229Z,46.16
2023-03-06T00:20:19.889Z,47.35
2023-03-06T00:22:46.910Z,45.86
2023-03-06T00:25:16.993Z,46.51
2023-03-06T00:27:44.138Z,46.48
2023-03-06T00:30:16.715Z,47.06
2023-03-06T00:32:43.866Z,46.88
2023-03-06T00:35:12.188Z,47.47
2023-03-06T00:37:44.121Z,48.47
2023-03-06T00:40:16.419Z,49.25
2023-03-06T00:42:43.483Z,48.15
2023-03-06T00:45:11.099Z,47.19
2023-03-06T00:47:38.068Z,47.58
2023-03-06T00:50:05.753Z,46.53
2023-03-06T00:52:32.684Z,46.65
2023-03-06T00:54:59.529Z,46.22
2023-03-06T00:57:26.154Z,47.71
2023-03-06T00:59:53.232Z,49.37
2023-03-06T01:02:20.058Z,48.24
2023-03-06T01:04:47.026Z,47.08
2023-03-06T01:07:13.670Z,48.76
2023-03-06T01:09:41.424Z,49.29
2023-03-06T01:12:08.556Z,48.22
2023-03-06T01:14:35.440Z,48.66
2023-03-06T01:17:02.115Z,50.49
2023-03-06T01:19:28.772Z,50.06
2023-03-06T01:21:57.718Z,50.46
2023-03-06T01:24:24.561Z,50.96
2023-03-06T01:26:51.584Z,50.10
2023-03-06T01:29:18.352Z,50.60
2023-03-06T01:31:46.190Z,50.27
2023-03-06T01:34:12.964Z,50.06
2023-03-06T01:36:39.817Z,48.86
2023-03-06T01:39:06.869Z,48.96
2023-03-06T01:41:33.457Z,49.30
2023-03-06T01:44:00.169Z,49.42
2023-03-06T01:46:32.196Z,50.29
2023-03-06T01:49:25.552Z,48.11
2023-03-06T01:51:55.446Z,47.81
2023-03-06T01:54:35.641Z,47.54
2023-03-06T01:57:36.091Z,49.22
2023-03-06T02:00:14.201Z,49.31
2023-03-06T02:03:09.967Z,48.08
2023-03-06T02:05:37.635Z,47.67
2023-03-06T02:08:06.789Z,47.67
2023-03-06T02:10:34.256Z,45.80
2023-03-06T02:13:01.543Z,47.37
2023-03-06T02:15:30.218Z,47.43
2023-03-06T02:17:57.283Z,48.62
2023-03-06T02:20:27.200Z,47.27
2023-03-06T02:23:29.475Z,47.62
2023-03-06T02:25:58.598Z,49.12
2023-03-06T02:28:25.400Z,48.36
2023-03-06T02:30:54.920Z,48.39
2023-03-06T02:33:24.893Z,48.77
2023-03-06T02:36:02.404Z,50.98
2023-03-06T02:38:42.605Z,49.86
2023-03-06T02:41:09.403Z,49.98
2023-03-06T02:43:39.687Z,50.22
2023-03-06T02:46:07.012Z,51.17
2023-03-06T02:48:33.694Z,50.41
2023-03-06T02:51:00.454Z,51.31
2023-03-06T02:53:27.450Z,49.75
2023-03-06T02:55:54.557Z,49.55
2023-03-06T02:58:21.316Z,49.36
2023-03-06T03:00:49.657Z,49.67
2023-03-06T03:03:17.516Z,49.51
2023-03-06T03:05:44.223Z,48.31
2023-03-06T03:08:10.956Z,49.71
2023-03-06T03:10:37.760Z,49.79
2023-03-06T03:13:04.980Z,49.06
2023-03-06T03:15:31.928Z,50.66
2023-03-06T03:17:58.624Z,50.62
2023-03-06T03:20:25.368Z,50.25
2023-03-06T03:22:54.555Z,49.18
2023-03-06T03:25:23.680Z,50.90
2023-03-06T03:27:50.813Z,50.01
2023-03-06T03:30:17.861Z,49.61
2023-03-06T03:32:44.497Z,48.81
2023-03-06T03:35:11.855Z,51.16
2023-03-06T03:37:38.586Z,49.58
2023-03-06T03:40:06.085Z,50.13
2023-03-06T03:42:32.999Z,50.66
2023-03-06T03:44:59.697Z,49.54
2023-03-06T03:47:26.361Z,50.28
2023-03-06T03:49:53.100Z,50.90
2023-03-06T03:52:19.829Z,52.03
2023-03-06T03:54:46.507Z,50.89
2023-03-06T03:57:13.160Z,50.57
2023-03-06T03:59:39.781Z,51.28
2023-03-06T04:02:06.454Z,50.96
2023-03-06T04:04:33.143Z,50.90
2023-03-06T04:06:59.785Z,50.53
2023-03-06T04:09:26.420Z,50.60
2023-03-06T04:11:53.061Z,51.02
2023-03-06T04:14:19.716Z,51.65
2023-03-06T04:16:46.371Z,51.47
2023-03-06T04:19:13.003Z,50.97
2023-03-06T04:21:39.709Z,51.30
2023-03-06T04:24:06.707Z,50.05
2023-03-06T04:26:33.377Z,50.13
2023-03-06T04:29:00.109Z,50.30
2023-03-06T04:31:26.865Z,49.99
2023-03-06T04:33:53.564Z,50.25
2023-03-06T04:36:38.485Z,50.49
2023-03-06T04:39:05.177Z,51.30
2023-03-06T04:41:31.823Z,50.94
2023-03-06T04:43:58.752Z,49.76
2023-03-06T04:46:26.545Z,50.36
2023-03-06T04:48:53.190Z,51.95
2023-03-06T04:51:20.086Z,51.26
2023-03-06T04:53:46.875Z,49.94
2023-03-06T04:56:13.582Z,49.91
2023-03-06T04:58:40.321Z,49.96
2023-03-06T05:01:07.185Z,49.63
2023-03-06T05:03:33.831Z,51.46
2023-03-06T05:06:00.529Z,51.04
2023-03-06T05:08:27.784Z,51.24
2023-03-06T05:11:00.390Z,51.11
2023-03-06T05:13:28.112Z,51.58
2023-03-06T05:15:55.258Z,49.94
2023-03-06T05:18:22.053Z,52.40
2023-03-06T05:20:48.643Z,52.76
2023-03-06T05:23:15.274Z,52.38
2023-03-06T05:25:42.246Z,51.31
2023-03-06T05:28:09.095Z,51.29
2023-03-06T05:30:36.503Z,50.57
2023-03-06T05:33:03.188Z,52.71
2023-03-06T05:35:29.986Z,51.16
2023-03-06T05:37:56.669Z,51.87
2023-03-06T05:40:23.322Z,51.12
2023-03-06T05:42:49.924Z,52.10
2023-03-06T05:45:16.534Z,52.92
2023-03-06T05:47:43.215Z,52.10
2023-03-06T05:50:10.824Z,51.88
2023-03-06T05:52:38.790Z,51.32
2023-03-06T05:55:05.967Z,50.12
2023-03-06T05:57:32.676Z,51.62
2023-03-06T05:59:59.281Z,50.58
2023-03-06T06:02:25.942Z,51.56
2023-03-06T06:04:52.578Z,51.62
2023-03-06T06:07:19.273Z,50.30
2023-03-06T06:09:45.908Z,51.42
2023-03-06T06:12:14.033Z,51.27
2023-03-06T06:14:41.752Z,51.54
2023-03-06T06:17:08.512Z,52.03
2023-03-06T06:19:37.024Z,52.24
2023-03-06T06:22:03.901Z,51.35
2023-03-06T06:24:32.065Z,51.78
2023-03-06T06:27:03.870Z,50.88
2023-03-06T06:29:31.262Z,51.60
2023-03-06T06:31:58.151Z,50.13
2023-03-06T06:34:25.846Z,49.52
2023-03-06T06:36:53.849Z,49.61
2023-03-06T06:39:22.977Z,49.42
2023-03-06T06:42:05.554Z,49.85
2023-03-06T06:44:38.049Z,49.00
2023-03-06T06:47:24.200Z,50.35
2023-03-06T06:49:53.186Z,50.59
2023-03-06T06:52:19.976Z,50.00
2023-03-06T06:54:46.770Z,48.92
2023-03-06T06:57:13.469Z,47.71
2023-03-06T06:59:40.134Z,47.80
2023-03-06T07:02:06.754Z,47.29
2023-03-06T07:04:33.565Z,47.95
2023-03-06T07:07:00.307Z,47.37
2023-03-06T07:09:27.015Z,46.83
2023-03-06T07:11:53.668Z,46.43
2023-03-06T07:14:20.284Z,45.37
2023-03-06T07:16:46.923Z,45.04
2023-03-06T07:19:14.031Z,44.83
2023-03-06T07:21:41.220Z,46.37
2023-03-06T07:24:08.329Z,46.87
2023-03-06T07:26:35.192Z,46.22
2023-03-06T07:29:03.105Z,46.84
2023-03-06T07:31:32.719Z,46.68
2023-03-06T07:34:00.194Z,44.21
2023-03-06T07:36:27.133Z,45.52
2023-03-06T07:38:53.801Z,46.14
2023-03-06T07:41:22.484Z,46.19
2023-03-06T07:43:49.940Z,45.72
2023-03-06T07:46:20.018Z,45.44
2023-03-06T07:48:46.650Z,45.92
2023-03-06T07:51:17.249Z,46.67
2023-03-06T07:53:44.432Z,47.57
2023-03-06T07:56:11.976Z,46.70
2023-03-06T07:58:41.842Z,47.45
2023-03-06T08:01:12.600Z,48.07
2023-03-06T08:03:39.670Z,46.03
2023-03-06T08:06:18.905Z,45.23
2023-03-06T08:08:47.772Z,47.54
2023-03-06T08:11:17.028Z,47.26
2023-03-06T08:13:44.740Z,47.88
2023-03-06T08:16:12.386Z,46.78
2023-03-06T08:18:39.139Z,47.01
2023-03-06T08:21:10.010Z,46.52
2023-03-06T08:23:37.328Z,48.18
2023-03-06T08:26:07.525Z,47.14
2023-03-06T08:28:35.134Z,47.55
2023-03-06T08:31:12.891Z,45.26
2023-03-06T08:33:40.813Z,44.29
2023-03-06T08:36:07.621Z,45.02
2023-03-06T08:38:34.293Z,43.20
2023-03-06T08:41:00.977Z,43.76
2023-03-06T08:43:27.780Z,43.43
2023-03-06T08:45:59.058Z,44.53
2023-03-06T08:48:26.298Z,42.95
2023-03-06T08:50:53.576Z,41.44
2023-03-06T08:53:30.453Z,42.82
2023-03-06T08:56:03.916Z,43.17
2023-03-06T08:58:34.766Z,42.28
2023-03-06T09:01:01.750Z,43.47
2023-03-06T09:03:28.587Z,46.32
2023-03-06T09:05:55.205Z,43.33
2023-03-06T09:08:21.823Z,42.78
2023-03-06T09:10:48.984Z,44.02
2023-03-06T09:13:15.720Z,42.00
2023-03-06T09:15:42.378Z,41.87
2023-03-06T09:18:09.101Z,42.46
2023-03-06T09:20:36.784Z,41.56
2023-03-06T09:23:03.573Z,41.27
2023-03-06T09:25:30.250Z,41.03
2023-03-06T09:28:10.426Z,39.72
2023-03-06T09:30:40.514Z,41.02
2023-03-06T09:33:07.265Z,41.48
2023-03-06T09:35:34.164Z,41.45
2023-03-06T09:38:00.917Z,40.41
2023-03-06T09:40:41.334Z,40.11
2023-03-06T09:43:24.637Z,41.39
2023-03-06T09:45:53.694Z,42.38
2023-03-06T09:48:27.452Z,42.98
2023-03-06T09:51:02.977Z,41.70
2023-03-06T09:53:46.211Z,41.67
2023-03-06T09:56:26.685Z,40.79
2023-03-06T09:59:13.161Z,40.54
2023-03-06T10:01:45.931Z,41.94
2023-03-06T10:04:40.599Z,40.59
2023-03-06T10:07:22.254Z,41.83
2023-03-06T10:10:02.587Z,40.35
2023-03-06T10:12:42.462Z,39.81
2023-03-06T10:15:21.531Z,39.97
2023-03-06T10:17:48.856Z,40.02
2023-03-06T10:20:16.682Z,40.89
2023-03-06T10:23:01.397Z,44.77
2023-03-06T10:25:54.829Z,63.79
2023-03-06T10:28:36.171Z,39.97
2023-03-06T10:31:18.338Z,43.88
2023-03-06T10:33:55.109Z,44.23
2023-03-06T10:36:28.224Z,43.31
2023-03-06T10:38:57.520Z,40.29
2023-03-06T10:41:31.558Z,41.52
2023-03-06T10:44:01.251Z,44.17
2023-03-06T10:46:32.165Z,40.79
2023-03-06T10:49:02.330Z,46.28
2023-03-06T10:51:31.366Z,41.63
2023-03-06T10:54:01.226Z,36.88
2023-03-06T10:56:35.445Z,40.90
2023-03-06T10:59:19.360Z,35.86
2023-03-06T11:01:55.231Z,34.87
2023-03-06T11:04:26.683Z,36.87
2023-03-06T11:07:16.384Z,35.10
2023-03-06T11:10:01.642Z,36.57
2023-03-06T11:12:35.820Z,36.34
2023-03-06T11:15:14.569Z,36.52
2023-03-06T11:17:58.255Z,38.35
2023-03-06T11:20:51.911Z,40.13
2023-03-06T11:23:34.897Z,37.59
2023-03-06T11:26:16.601Z,35.76
2023-03-06T11:29:07.890Z,36.19
2023-03-06T11:32:14.522Z,34.53
2023-03-06T11:34:59.663Z,34.97
2023-03-06T11:37:31.931Z,31.37
2023-03-06T11:40:01.255Z,31.65
2023-03-06T11:42:39.597Z,32.58
2023-03-06T11:45:24.943Z,30.86
2023-03-06T11:48:03.385Z,30.34
2023-03-06T11:50:41.684Z,29.02
2023-03-06T11:53:15.956Z,29.46
2023-03-06T11:56:00.765Z,27.22
2023-03-06T11:58:39.422Z,27.69
2023-03-06T12:01:12.186Z,29.34
2023-03-06T12:03:44.487Z,30.24
2023-03-06T12:06:22.012Z,31.14
2023-03-06T12:09:03.828Z,32.66
2023-03-06T12:11:45.848Z,29.90
2023-03-06T12:14:32.497Z,31.21
2023-03-06T12:17:05.137Z,31.35
2023-03-06T12:20:02.043Z,31.50
2023-03-06T12:22:40.060Z,31.12
2023-03-06T12:25:18.672Z,29.67
2023-03-06T12:28:06.553Z,28.76
2023-03-06T12:30:42.100Z,29.49
2023-03-06T12:33:22.656Z,29.13
2023-03-06T12:36:15.426Z,29.26
2023-03-06T12:39:00.032Z,27.97
2023-03-06T12:41:41.725Z,29.12
2023-03-06T12:44:30.334Z,29.13
2023-03-06T12:47:20.473Z,28.37
2023-03-06T12:50:07.620Z,28.90
2023-03-06T12:52:35.709Z,27.38
2023-03-06T12:55:07.445Z,27.77
2023-03-06T12:57:34.321Z,28.28
2023-03-06T13:00:01.178Z,27.64
2023-03-06T13:03:19.840Z,25.05
2023-03-06T13:06:11.574Z,27.62
2023-03-06T13:09:10.505Z,28.70
2023-03-06T13:12:08.356Z,27.95
2023-03-06T13:14:42.332Z,26.42
2023-03-06T13:17:24.358Z,24.52
2023-03-06T13:20:13.209Z,26.57
2023-03-06T13:22:43.120Z,24.48
2023-03-06T13:25:35.673Z,24.48
2023-03-06T13:28:04.870Z,24.83
2023-03-06T13:30:34.481Z,23.67
2023-03-06T13:33:01.171Z,23.06
2023-03-06T13:35:30.496Z,24.18
2023-03-06T13:37:59.231Z,23.63
2023-03-06T13:40:32.138Z,24.85
2023-03-06T13:43:07.541Z,25.02
2023-03-06T13:45:40.399Z,22.94
2023-03-06T13:48:30.295Z,23.48
2023-03-06T13:50:56.088Z,23.82
2023-03-06T13:53:51.799Z,23.72
2023-03-06T13:56:45.731Z,21.74
2023-03-06T13:59:39.362Z,20.17
2023-03-06T14:02:36.697Z,20.27
2023-03-06T14:05:12.747Z,19.32
2023-03-06T14:07:45.521Z,17.65
2023-03-06T14:10:22.325Z,16.72
2023-03-06T14:12:48.915Z,17.72
2023-03-06T14:15:41.710Z,17.93
2023-03-06T14:18:22.003Z,16.75
2023-03-06T14:20:54.566Z,15.91
2023-03-06T14:23:21.230Z,16.90
2023-03-06T14:26:12.554Z,19.24
2023-03-06T14:28:39.226Z,19.58
2023-03-06T14:31:17.901Z,16.94
2023-03-06T14:34:21.141Z,17.15
2023-03-06T14:36:50.976Z,15.65
2023-03-06T14:39:37.304Z,15.10
2023-03-06T14:42:06.893Z,18.41
2023-03-06T14:44:33.653Z,19.55
2023-03-06T14:47:22.958Z,19.72
2023-03-06T14:50:25.997Z,19.21
2023-03-06T14:53:16.230Z,18.75
2023-03-06T14:56:05.996Z,16.80
2023-03-06T14:58:38.322Z,17.75
2023-03-06T15:01:10.706Z,18.64
2023-03-06T15:03:50.811Z,18.05
2023-03-06T15:06:29.069Z,17.06
2023-03-06T15:09:19.348Z,17.55
2023-03-06T15:12:00.146Z,16.97
2023-03-06T15:14:36.899Z,16.66
2023-03-06T15:17:22.700Z,16.50
2023-03-06T15:19:52.722Z,17.12
2023-03-06T15:22:40.242Z,16.08
2023-03-06T15:25:18.798Z,15.47
2023-03-06T15:27:59.165Z,16.22
2023-03-06T15:30:36.432Z,15.38
2023-03-06T15:33:29.200Z,15.04
2023-03-06T15:35:58.834Z,15.40
2023-03-06T15:38:44.027Z,15.88
2023-03-06T15:41:24.462Z,16.25
2023-03-06T15:43:51.089Z,16.24
2023-03-06T15:46:17.761Z,15.11
2023-03-06T15:49:01.104Z,14.03
2023-03-06T15:51:32.163Z,13.15
2023-03-06T15:54:11.845Z,12.89
2023-03-06T15:56:42.577Z,14.14
2023-03-06T15:59:24.444Z,13.90
2023-03-06T16:01:52.052Z,13.65
2023-03-06T16:04:20.269Z,13.07
2023-03-06T16:06:46.884Z,12.46
2023-03-06T16:09:14.351Z,12.01
2023-03-06T16:11:44.320Z,12.27
2023-03-06T16:14:20.926Z,12.19
2023-03-06T16:16:48.618Z,12.04
2023-03-06T16:19:25.876Z,11.64
2023-03-06T16:21:53.981Z,12.19
2023-03-06T16:24:20.606Z,11.04
2023-03-06T16:26:52.564Z,11.59
2023-03-06T16:29:24.770Z,11.74
2023-03-06T16:31:52.474Z,11.58
2023-03-06T16:34:19.081Z,12.08
2023-03-06T16:36:47.238Z,12.59
2023-03-06T16:39:17.063Z,12.67
2023-03-06T16:41:43.705Z,12.28
2023-03-06T16:44:10.465Z,12.04
2023-03-06T16:46:40.220Z,12.88
2023-03-06T16:49:06.996Z,12.54
2023-03-06T16:51:33.656Z,12.00
2023-03-06T16:54:00.266Z,11.80
2023-03-06T16:56:26.923Z,11.92
2023-03-06T16:58:53.597Z,11.34
2023-03-06T17:01:20.302Z,11.09
2023-03-06T17:03:47.128Z,11.19
2023-03-06T17:06:20.819Z,10.62
2023-03-06T17:08:49.458Z,10.64
2023-03-06T17:11:17.081Z,10.38
2023-03-06T17:13:48.261Z,10.89
2023-03-06T17:16:15.841Z,10.66
2023-03-06T17:18:45.337Z,11.09
2023-03-06T17:21:14.165Z,10.94
2023-03-06T17:23:40.797Z,11.39
2023-03-06T17:26:19.105Z,11.20
2023-03-06T17:28:46.410Z,11.09
2023-03-06T17:31:17.778Z,11.53
2023-03-06T17:33:44.896Z,11.38
2023-03-06T17:36:11.901Z,11.19
2023-03-06T17:38:38.576Z,10.62
2023-03-06T17:41:07.616Z,11.74
2023-03-06T17:43:34.270Z,11.21
2023-03-06T17:46:09.956Z,10.88
2023-03-06T17:48:38.091Z,10.44
2023-03-06T17:51:05.926Z,10.89
2023-03-06T17:53:33.317Z,12.91
2023-03-06T17:55:59.935Z,14.83
2023-03-06T17:58:27.417Z,12.99
2023-03-06T18:00:54.155Z,13.53
2023-03-06T18:03:21.105Z,13.48
2023-03-06T18:06:05.254Z,15.70
2023-03-06T18:08:32.280Z,14.81
2023-03-06T18:11:03.389Z,13.93
2023-03-06T18:13:31.536Z,15.66
2023-03-06T18:15:58.414Z,17.39
2023-03-06T18:18:25.493Z,15.39
2023-03-06T18:20:52.396Z,14.22
2023-03-06T18:23:19.050Z,26.41
2023-03-06T18:25:45.696Z,22.17
2023-03-06T18:28:12.444Z,16.83
2023-03-06T18:30:40.888Z,14.72
2023-03-06T18:33:07.999Z,15.04
2023-03-06T18:35:35.400Z,24.18
2023-03-06T18:38:02.330Z,24.23
2023-03-06T18:40:28.968Z,14.08
2023-03-06T18:42:55.587Z,11.00
2023-03-06T18:45:22.231Z,13.99
2023-03-06T18:47:48.892Z,15.85
2023-03-06T18:50:15.709Z,15.46
2023-03-06T18:52:43.697Z,14.75
2023-03-06T18:55:10.635Z,15.81
2023-03-06T18:57:37.238Z,14.75
2023-03-06T19:00:05.415Z,15.23
2023-03-06T19:02:32.043Z,14.50
2023-03-06T19:04:58.811Z,14.65
2023-03-06T19:07:25.774Z,14.19
2023-03-06T19:09:55.031Z,14.13
2023-03-06T19:12:21.894Z,13.04
2023-03-06T19:14:48.623Z,12.23
2023-03-06T19:17:15.241Z,12.14
2023-03-06T19:19:41.877Z,12.80
2023-03-06T19:22:08.502Z,14.57
2023-03-06T19:24:35.181Z,13.62
2023-03-06T19:27:01.838Z,14.08
2023-03-06T19:29:30.495Z,13.07
2023-03-06T19:31:57.566Z,12.93
2023-03-06T19:34:24.260Z,12.63
2023-03-06T19:36:51.031Z,11.95
2023-03-06T19:39:17.730Z,12.52
2023-03-06T19:41:46.370Z,11.86
2023-03-06T19:44:13.022Z,12.33
2023-03-06T19:46:39.615Z,12.35
2023-03-06T19:49:06.249Z,12.19
2023-03-06T19:51:32.865Z,12.49
2023-03-06T19:53:59.587Z,12.78
2023-03-06T19:56:28.777Z,12.76
2023-03-06T19:58:56.143Z,12.96
2023-03-06T20:01:25.209Z,13.14
2023-03-06T20:03:56.802Z,13.52
2023-03-06T20:06:23.429Z,13.50
2023-03-06T20:08:50.026Z,15.91
2023-03-06T20:11:25.531Z,13.88
2023-03-06T20:13:52.787Z,15.37
2023-03-06T20:16:19.482Z,15.73
2023-03-06T20:18:46.667Z,13.74
2023-03-06T20:21:14.538Z,13.12
2023-03-06T20:23:41.598Z,12.71
2023-03-06T20:26:11.807Z,13.57
2023-03-06T20:28:39.629Z,13.03
2023-03-06T20:31:16.021Z,13.81
2023-03-06T20:33:43.540Z,13.43
2023-03-06T20:36:15.570Z,13.73
2023-03-06T20:38:43.124Z,13.91
2023-03-06T20:41:22.793Z,13.46
2023-03-06T20:43:52.578Z,13.62
2023-03-06T20:46:21.762Z,13.85
2023-03-06T20:48:50.113Z,14.46
2023-03-06T20:51:23.328Z,14.06
2023-03-06T20:53:52.542Z,13.65
2023-03-06T20:56:24.557Z,13.82
2023-03-06T20:58:52.134Z,13.73
2023-03-06T21:01:23.105Z,14.25
2023-03-06T21:03:49.823Z,14.08
2023-03-06T21:06:17.139Z,14.42
2023-03-06T21:08:43.924Z,14.36
2023-03-06T21:11:10.862Z,14.58
2023-03-06T21:13:37.820Z,15.17
2023-03-06T21:16:10.366Z,14.70
2023-03-06T21:18:37.189Z,14.90
2023-03-06T21:21:25.084Z,16.94
2023-03-06T21:23:52.073Z,16.21
2023-03-06T21:26:21.840Z,16.83
2023-03-06T21:28:49.283Z,16.67
2023-03-06T21:31:18.942Z,17.23
2023-03-06T21:33:47.491Z,17.74
2023-03-06T21:36:14.784Z,15.38
2023-03-06T21:38:41.617Z,16.77
2023-03-06T21:41:11.560Z,15.84
2023-03-06T21:43:38.752Z,16.28
2023-03-06T21:46:06.214Z,16.52
2023-03-06T21:48:33.155Z,17.09
2023-03-06T21:51:08.527Z,18.79
2023-03-06T21:53:36.076Z,16.81
2023-03-06T21:56:03.943Z,17.75
2023-03-06T21:58:31.027Z,18.36
2023-03-06T22:00:57.816Z,15.02
2023-03-06T22:03:24.617Z,14.81
2023-03-06T22:05:51.538Z,14.17
2023-03-06T22:08:19.809Z,13.90
2023-03-06T22:10:48.515Z,14.70
2023-03-06T22:13:15.451Z,14.98
2023-03-06T22:15:52.481Z,14.62
2023-03-06T22:18:19.941Z,14.84
2023-03-06T22:20:46.653Z,14.59
2023-03-06T22:23:13.446Z,14.95
2023-03-06T22:25:40.323Z,15.01
2023-03-06T22:28:07.029Z,15.39
2023-03-06T22:30:33.738Z,15.46
2023-03-06T22:33:00.369Z,15.61
2023-03-06T22:35:27.115Z,15.72
2023-03-06T22:37:53.739Z,16.00
2023-03-06T22:40:20.374Z,15.75
2023-03-06T22:42:47.013Z,15.97
2023-03-06T22:45:13.649Z,15.26
2023-03-06T22:47:40.320Z,15.23
2023-03-06T22:50:07.790Z,15.15
2023-03-06T22:52:34.436Z,15.07
2023-03-06T22:55:01.312Z,15.13
2023-03-06T22:57:27.941Z,15.47
2023-03-06T22:59:54.617Z,14.94
2023-03-06T23:02:21.561Z,14.74
2023-03-06T23:04:49.541Z,14.96
2023-03-06T23:07:16.202Z,15.22
2023-03-06T23:09:47.028Z,19.67
2023-03-06T23:12:14.025Z,16.02
2023-03-06T23:14:40.669Z,15.51
2023-03-06T23:17:07.302Z,14.93
2023-03-06T23:19:33.927Z,14.27
2023-03-06T23:22:00.600Z,14.81
2023-03-06T23:24:27.214Z,14.53
2023-03-06T23:26:53.926Z,13.71
2023-03-06T23:29:20.534Z,14.66
2023-03-06T23:31:47.137Z,13.72
2023-03-06T23:34:13.871Z,13.52
2023-03-06T23:36:40.505Z,13.48
2023-03-06T23:39:07.141Z,13.64
2023-03-06T23:41:33.813Z,13.07
2023-03-06T23:44:00.463Z,13.34
2023-03-06T23:46:27.841Z,13.80
2023-03-06T23:48:55.669Z,13.49
2023-03-06T23:51:23.183Z,13.50
2023-03-06T23:53:56.503Z,13.36
2023-03-06T23:56:25.001Z,13.54
2023-03-06T23:58:51.981Z,13.83
